Time;durP1;ratioP1;P1;durP2;ratioP2;P2;SDS_P1;SDS_P2;PMS_P1;PMS_P2;Temp;Humidity;BMP_temperature;BMP_pressure;BME280_temperature;BME280_humidity;BME280_pressure;Samples;Min_cycle;Max_cycle;Signal;HPM_P1;HPM_P2
2022/10/30 00:02:08;;;;;;;16.15;8.57;;;16.60;81.40;;;;;;5001906;28;20030;-78
2022/10/30 00:04:34;;;;;;;15.07;8.63;;;16.60;81.50;;;;;;5004322;28;20026;-77
2022/10/30 00:06:59;;;;;;;24.27;9.55;;;16.60;81.50;;;;;;5007443;28;20121;-77
2022/10/30 00:09:25;;;;;;;18.85;9.48;;;16.50;81.60;;;;;;5003128;28;20377;-77
2022/10/30 00:11:51;;;;;;;18.23;9.65;;;16.50;81.80;;;;;;5001696;28;20124;-78
2022/10/30 00:14:17;;;;;;;22.23;10.52;;;16.50;81.80;;;;;;4998223;28;20483;-78
2022/10/30 00:16:42;;;;;;;21.08;9.88;;;16.50;81.90;;;;;;4997740;28;20029;-78
2022/10/30 00:19:08;;;;;;;17.85;9.05;;;16.50;81.90;;;;;;5001340;28;20034;-78
2022/10/30 00:21:34;;;;;;;16.13;9.40;;;16.40;82.00;;;;;;5003233;28;20026;-78
2022/10/30 00:23:59;;;;;;;16.95;9.18;;;16.40;82.00;;;;;;5001860;28;20022;-77
2022/10/30 00:26:26;;;;;;;17.80;9.02;;;16.40;81.90;;;;;;5002018;28;20060;-77
2022/10/30 00:28:54;;;;;;;16.23;9.52;;;16.30;82.00;;;;;;5001574;28;20037;-78
2022/10/30 00:31:20;;;;;;;15.07;9.02;;;16.30;82.00;;;;;;5002493;28;20026;-77
2022/10/30 00:33:53;;;;;;;18.27;10.55;;;16.30;82.10;;;;;;5002325;28;20072;-78
2022/10/30 00:36:20;;;;;;;17.63;9.55;;;16.20;82.20;;;;;;5002158;28;20080;-78
2022/10/30 00:38:46;;;;;;;17.35;9.75;;;16.30;82.40;;;;;;5001977;28;20041;-77
2022/10/30 00:41:16;;;;;;;17.60;9.13;;;16.20;82.40;;;;;;4987308;28;20033;-78
2022/10/30 00:43:42;;;;;;;17.38;9.55;;;16.10;82.40;;;;;;4984216;28;20058;-79
2022/10/30 00:46:26;;;;;;;18.08;9.27;;;16.10;82.50;;;;;;4980123;28;20480;-78
2022/10/30 00:49:09;;;;;;;17.80;9.98;;;16.10;82.50;;;;;;5001261;28;20029;-79
2022/10/30 00:51:38;;;;;;;13.90;9.27;;;16.10;82.50;;;;;;4982069;28;20037;-78
2022/10/30 00:54:04;;;;;;;15.27;8.93;;;16.10;82.60;;;;;;5001083;28;20270;-79
2022/10/30 00:56:31;;;;;;;16.90;9.40;;;16.00;82.60;;;;;;5000774;28;20038;-78
2022/10/30 00:59:01;;;;;;;16.33;9.45;;;16.10;82.70;;;;;;5001710;28;20045;-78
2022/10/30 01:01:31;;;;;;;17.13;9.23;;;16.00;82.70;;;;;;5000801;28;20030;-78
2022/10/30 01:04:01;;;;;;;17.90;10.00;;;16.00;82.70;;;;;;4999740;28;20040;-78
2022/10/30 01:06:28;;;;;;;15.73;9.80;;;15.90;82.80;;;;;;5002480;28;20140;-78
2022/10/30 01:08:54;;;;;;;16.00;9.50;;;15.90;82.80;;;;;;5000628;28;20520;-78
2022/10/30 01:11:20;;;;;;;17.38;9.93;;;15.90;82.90;;;;;;5003778;28;20029;-78
2022/10/30 01:13:49;;;;;;;18.65;9.52;;;15.90;83.00;;;;;;5000453;28;20054;-78
2022/10/30 01:16:24;;;;;;;19.35;9.82;;;15.90;83.00;;;;;;5001965;28;20045;-78
2022/10/30 01:19:16;;;;;;;18.08;9.32;;;15.90;83.00;;;;;;5003945;28;20053;-79
2022/10/30 01:22:35;;;;;;;18.13;9.95;;;15.90;83.10;;;;;;4985546;28;20451;-78
2022/10/30 01:25:32;;;;;;;18.55;9.95;;;15.90;83.10;;;;;;4884860;29;20098;-77
2022/10/30 01:28:10;;;;;;;19.27;10.63;;;15.80;83.10;;;;;;5001453;28;20115;-79
2022/10/30 01:30:38;;;;;;;18.25;9.88;;;15.80;83.10;;;;;;4999720;28;20034;-78
2022/10/30 01:33:23;;;;;;;14.48;9.13;;;15.80;83.20;;;;;;5001297;28;20038;-79
2022/10/30 01:36:09;;;;;;;14.48;9.15;;;15.80;83.20;;;;;;5001065;28;20488;-78
2022/10/30 01:38:57;;;;;;;16.30;9.20;;;15.70;83.20;;;;;;4998572;28;20050;-78
2022/10/30 01:41:23;;;;;;;18.08;10.05;;;15.70;83.20;;;;;;5000130;28;20042;-78
2022/10/30 01:43:54;;;;;;;17.27;9.98;;;15.70;83.30;;;;;;5001417;28;20034;-78
2022/10/30 01:46:44;;;;;;;16.65;9.73;;;15.60;83.40;;;;;;5001585;28;20038;-79
2022/10/30 01:49:43;;;;;;;16.33;9.40;;;15.60;83.40;;;;;;5004601;28;20030;-78
2022/10/30 01:53:03;;;;;;;17.10;10.05;;;15.60;83.40;;;;;;4992475;28;20049;-78
2022/10/30 01:55:41;;;;;;;16.40;9.90;;;15.60;83.50;;;;;;4947309;28;20045;-78
2022/10/30 01:58:33;;;;;;;15.90;9.23;;;15.60;83.50;;;;;;4946179;28;20037;-78
2022/10/30 02:00:59;;;;;;;15.48;9.48;;;15.60;83.50;;;;;;4978149;28;20038;-78
2022/10/30 02:03:26;;;;;;;18.27;11.32;;;15.50;83.60;;;;;;5005907;28;20161;-78
2022/10/30 02:05:52;;;;;;;16.45;10.23;;;15.50;83.60;;;;;;5004395;28;20100;-77
2022/10/30 02:08:20;;;;;;;18.40;10.80;;;15.50;83.60;;;;;;4986499;28;20466;-78
2022/10/30 02:10:48;;;;;;;16.23;9.60;;;15.50;83.70;;;;;;5004962;28;20026;-77
2022/10/30 02:13:14;;;;;;;17.08;10.48;;;15.50;83.80;;;;;;5001574;28;20351;-77
2022/10/30 02:15:41;;;;;;;23.23;11.55;;;15.40;83.70;;;;;;5004115;28;20141;-77
2022/10/30 02:18:08;;;;;;;21.42;11.30;;;15.40;83.80;;;;;;5004252;28;20049;-77
2022/10/30 02:20:34;;;;;;;18.65;10.80;;;15.40;83.80;;;;;;5005967;28;20828;-78
2022/10/30 02:23:00;;;;;;;20.17;11.35;;;15.40;83.80;;;;;;5002587;28;20041;-78
2022/10/30 02:25:26;;;;;;;20.58;10.88;;;15.30;83.80;;;;;;5004966;28;20033;-79
2022/10/30 02:27:51;;;;;;;16.15;10.25;;;15.30;83.90;;;;;;4990122;28;20050;-78
2022/10/30 02:30:17;;;;;;;17.48;10.60;;;15.30;83.90;;;;;;4990133;28;20355;-78
2022/10/30 02:32:42;;;;;;;19.55;10.85;;;15.30;84.00;;;;;;5000491;28;20250;-78
2022/10/30 02:35:08;;;;;;;18.55;10.30;;;15.20;84.00;;;;;;5002769;28;20030;-77
2022/10/30 02:37:38;;;;;;;19.88;10.30;;;15.20;84.10;;;;;;5005917;28;20034;-77
2022/10/30 02:40:04;;;;;;;20.70;10.85;;;15.20;84.20;;;;;;5011691;28;20060;-77
2022/10/30 02:42:30;;;;;;;21.52;10.98;;;15.20;84.30;;;;;;5001922;28;20117;-78
2022/10/30 02:44:56;;;;;;;19.63;11.10;;;15.20;84.40;;;;;;5004076;28;20041;-78
2022/10/30 02:47:21;;;;;;;20.13;10.63;;;15.20;84.40;;;;;;5004048;28;20026;-78
2022/10/30 02:49:47;;;;;;;16.00;10.07;;;15.20;84.40;;;;;;5003599;28;20029;-78
2022/10/30 02:52:12;;;;;;;18.75;10.73;;;15.20;84.50;;;;;;5006824;28;20377;-78
2022/10/30 02:54:38;;;;;;;19.40;11.43;;;15.20;84.50;;;;;;5000443;28;20029;-78
2022/10/30 02:57:04;;;;;;;20.35;10.43;;;15.20;84.60;;;;;;5002588;28;20088;-78
2022/10/30 02:59:29;;;;;;;22.42;11.32;;;15.20;84.60;;;;;;5007261;28;20037;-78
2022/10/30 03:01:55;;;;;;;20.48;11.10;;;15.20;84.60;;;;;;4985028;28;20042;-78
2022/10/30 03:04:21;;;;;;;19.83;11.00;;;15.20;84.60;;;;;;5002109;28;20046;-77
2022/10/30 03:06:46;;;;;;;17.75;10.93;;;15.20;84.60;;;;;;5005243;28;20219;-77
2022/10/30 03:09:12;;;;;;;20.55;10.93;;;15.20;84.50;;;;;;4999569;28;20121;-77
2022/10/30 03:11:38;;;;;;;18.05;11.30;;;15.20;84.40;;;;;;5003734;28;20482;-77
2022/10/30 03:14:03;;;;;;;19.05;11.15;;;15.20;84.40;;;;;;5001933;28;20046;-77
2022/10/30 03:16:29;;;;;;;19.95;11.35;;;15.10;84.20;;;;;;5002661;28;20034;-78
2022/10/30 03:18:56;;;;;;;19.30;10.82;;;15.10;84.40;;;;;;5003498;28;20318;-77
2022/10/30 03:21:23;;;;;;;18.65;10.57;;;15.10;84.40;;;;;;5001383;28;20056;-78
2022/10/30 03:23:50;;;;;;;20.13;10.80;;;15.00;84.40;;;;;;5001700;28;21173;-77
2022/10/30 03:26:16;;;;;;;21.83;12.07;;;15.00;84.40;;;;;;5003963;28;20034;-76
2022/10/30 03:28:42;;;;;;;22.42;11.30;;;14.90;84.50;;;;;;4986612;28;20421;-77
2022/10/30 03:31:13;;;;;;;17.25;10.77;;;15.00;84.30;;;;;;5004465;28;20485;-77
2022/10/30 03:33:40;;;;;;;19.73;12.15;;;14.90;84.40;;;;;;5002416;28;20437;-77
2022/10/30 03:36:07;;;;;;;19.15;11.25;;;14.90;84.20;;;;;;5006181;28;20045;-76
2022/10/30 03:38:33;;;;;;;23.63;11.30;;;14.80;84.30;;;;;;4985418;28;20500;-79
2022/10/30 03:40:59;;;;;;;20.73;11.75;;;14.80;84.30;;;;;;5005033;28;20110;-77
2022/10/30 03:43:25;;;;;;;17.38;10.45;;;14.70;84.30;;;;;;5003895;28;20406;-78
2022/10/30 03:45:53;;;;;;;20.42;11.63;;;14.70;84.40;;;;;;5003044;28;20172;-77
2022/10/30 03:48:21;;;;;;;22.25;11.32;;;14.60;84.50;;;;;;5002912;28;20034;-77
2022/10/30 03:50:47;;;;;;;21.17;11.85;;;14.60;84.60;;;;;;5002793;28;20026;-77
2022/10/30 03:53:13;;;;;;;19.20;10.18;;;14.60;84.60;;;;;;5004667;28;20485;-78
2022/10/30 03:55:39;;;;;;;16.67;11.40;;;14.60;84.60;;;;;;4998150;28;20030;-77
2022/10/30 03:58:05;;;;;;;20.90;11.52;;;14.60;84.80;;;;;;5000533;28;20048;-77
2022/10/30 04:00:31;;;;;;;22.33;11.57;;;14.60;84.80;;;;;;4986312;28;20022;-77
2022/10/30 04:02:58;;;;;;;17.10;11.23;;;14.60;84.80;;;;;;4986734;28;20046;-77
2022/10/30 04:05:24;;;;;;;18.67;10.73;;;14.50;84.90;;;;;;5004373;28;20038;-78
2022/10/30 04:07:58;;;;;;;18.75;11.35;;;14.60;84.90;;;;;;5011455;28;20130;-78
2022/10/30 04:10:24;;;;;;;17.15;10.10;;;14.50;84.90;;;;;;5003261;28;22362;-77
2022/10/30 04:12:50;;;;;;;17.17;11.38;;;14.50;85.00;;;;;;4985590;28;20069;-77
2022/10/30 04:15:16;;;;;;;20.33;11.57;;;14.50;85.00;;;;;;4969483;28;20045;-77
2022/10/30 04:17:50;;;;;;;20.92;10.73;;;14.50;85.00;;;;;;4999653;28;20034;-77
2022/10/30 04:20:20;;;;;;;16.67;10.15;;;14.40;84.90;;;;;;4999879;28;20041;-77
2022/10/30 04:22:46;;;;;;;18.67;10.57;;;14.40;85.00;;;;;;4988994;28;20446;-77
2022/10/30 04:25:12;;;;;;;16.88;10.95;;;14.40;85.10;;;;;;5000584;28;20042;-77
2022/10/30 04:27:42;;;;;;;18.85;11.55;;;14.30;85.20;;;;;;5003584;28;20033;-77
2022/10/30 04:30:09;;;;;;;17.08;11.13;;;14.30;85.20;;;;;;4998017;28;20034;-77
2022/10/30 04:32:35;;;;;;;19.58;11.93;;;14.30;85.20;;;;;;5003967;28;20026;-76
2022/10/30 04:35:02;;;;;;;22.88;11.85;;;14.30;85.40;;;;;;5002335;28;20605;-76
2022/10/30 04:37:28;;;;;;;19.73;11.05;;;14.30;85.50;;;;;;5003788;28;20072;-77
2022/10/30 04:39:53;;;;;;;20.08;10.95;;;14.30;85.50;;;;;;5002890;28;20069;-77
2022/10/30 04:42:19;;;;;;;19.02;12.48;;;14.30;85.60;;;;;;5002121;28;20030;-76
2022/10/30 04:44:44;;;;;;;21.08;11.43;;;14.30;85.60;;;;;;5002456;28;20022;-77
2022/10/30 04:47:10;;;;;;;19.05;10.95;;;14.30;85.50;;;;;;5002918;28;20042;-77
2022/10/30 04:49:36;;;;;;;19.15;11.30;;;14.20;85.50;;;;;;5003980;28;20034;-77
2022/10/30 04:52:01;;;;;;;21.70;12.07;;;14.20;85.30;;;;;;5004334;28;20112;-79
2022/10/30 04:54:27;;;;;;;16.27;11.15;;;14.20;85.30;;;;;;4987479;28;20678;-77
2022/10/30 04:56:53;;;;;;;19.95;11.95;;;14.10;85.40;;;;;;4982938;28;20042;-77
2022/10/30 04:59:19;;;;;;;18.67;12.15;;;14.10;85.40;;;;;;5003877;28;20426;-78
2022/10/30 05:01:44;;;;;;;19.83;12.25;;;14.10;85.40;;;;;;5004541;28;20054;-78
2022/10/30 05:04:10;;;;;;;22.70;12.45;;;14.10;85.50;;;;;;4988104;28;20042;-78
2022/10/30 05:06:37;;;;;;;22.00;13.27;;;14.00;85.60;;;;;;4988985;28;20516;-79
2022/10/30 05:09:02;;;;;;;23.58;13.07;;;14.00;85.70;;;;;;5001742;28;21159;-78
2022/10/30 05:11:28;;;;;;;20.42;11.10;;;14.00;85.90;;;;;;5002854;28;20049;-79
2022/10/30 05:13:54;;;;;;;23.50;12.73;;;14.00;85.90;;;;;;5000234;28;20042;-77
2022/10/30 05:16:20;;;;;;;16.73;11.23;;;14.00;86.00;;;;;;5001726;28;20026;-77
2022/10/30 05:18:45;;;;;;;20.70;11.50;;;14.00;86.00;;;;;;5002196;28;20048;-76
2022/10/30 05:21:11;;;;;;;18.10;11.77;;;14.10;86.00;;;;;;5005375;28;20489;-76
2022/10/30 05:23:37;;;;;;;19.20;11.65;;;14.10;85.80;;;;;;5006582;28;20033;-76
2022/10/30 05:26:03;;;;;;;18.58;12.70;;;14.10;85.80;;;;;;5009753;28;20093;-76
2022/10/30 05:28:28;;;;;;;20.50;11.43;;;14.10;85.90;;;;;;4988086;28;20037;-76
2022/10/30 05:30:54;;;;;;;22.55;12.25;;;14.10;86.00;;;;;;4988975;28;20034;-77
2022/10/30 05:33:20;;;;;;;18.15;11.93;;;14.10;86.10;;;;;;5004069;28;20095;-77
2022/10/30 05:35:45;;;;;;;18.08;12.02;;;14.10;86.20;;;;;;5004977;28;20033;-77
2022/10/30 05:38:12;;;;;;;20.08;11.50;;;14.20;86.10;;;;;;5002351;28;20034;-76
2022/10/30 05:40:37;;;;;;;18.42;11.10;;;14.20;86.10;;;;;;4987115;28;20092;-76
2022/10/30 05:43:04;;;;;;;17.05;11.35;;;14.10;86.00;;;;;;5006264;28;20038;-76
2022/10/30 05:45:30;;;;;;;20.30;11.80;;;14.10;86.00;;;;;;5004816;28;20085;-77
2022/10/30 05:47:56;;;;;;;23.80;12.93;;;14.10;86.10;;;;;;5005945;28;20150;-77
2022/10/30 05:50:22;;;;;;;19.73;13.27;;;14.10;86.20;;;;;;5005282;28;20044;-77
2022/10/30 05:52:48;;;;;;;18.95;12.13;;;14.10;86.30;;;;;;5005146;28;20030;-77
2022/10/30 05:55:14;;;;;;;22.40;13.15;;;14.10;86.50;;;;;;5005037;28;20030;-77
2022/10/30 05:57:39;;;;;;;26.85;13.30;;;14.10;86.60;;;;;;5004552;28;20674;-75
2022/10/30 06:00:06;;;;;;;22.65;12.68;;;14.20;86.50;;;;;;5005073;28;20202;-76
2022/10/30 06:02:32;;;;;;;20.48;14.15;;;14.10;86.50;;;;;;5004011;28;20429;-77
2022/10/30 06:04:57;;;;;;;22.27;12.82;;;14.10;86.60;;;;;;5005983;28;20038;-76
2022/10/30 06:07:23;;;;;;;26.77;13.73;;;14.20;86.60;;;;;;5003137;28;20037;-76
2022/10/30 06:09:49;;;;;;;22.38;14.27;;;14.20;86.60;;;;;;5004552;28;20124;-76
2022/10/30 06:12:14;;;;;;;21.75;13.00;;;14.20;86.50;;;;;;4986563;28;20458;-77
2022/10/30 06:14:40;;;;;;;23.02;13.18;;;14.20;86.50;;;;;;5005727;28;20466;-77
2022/10/30 06:17:07;;;;;;;20.10;13.52;;;14.20;86.30;;;;;;5004951;28;20070;-77
2022/10/30 06:19:32;;;;;;;23.10;13.40;;;14.10;86.40;;;;;;5003259;28;20152;-76
2022/10/30 06:21:58;;;;;;;21.52;13.27;;;14.10;86.20;;;;;;5005042;28;20489;-77
2022/10/30 06:24:24;;;;;;;24.13;13.30;;;14.10;86.20;;;;;;5004339;28;20061;-76
2022/10/30 06:26:49;;;;;;;22.30;13.57;;;14.00;86.10;;;;;;4987242;28;20037;-76
2022/10/30 06:29:15;;;;;;;22.67;12.07;;;14.00;86.00;;;;;;4985393;28;20026;-77
2022/10/30 06:31:41;;;;;;;19.15;12.38;;;13.90;85.90;;;;;;4998919;28;20099;-76
2022/10/30 06:34:06;;;;;;;24.40;14.95;;;13.80;86.00;;;;;;4998407;28;20032;-75
2022/10/30 06:36:32;;;;;;;20.13;13.05;;;13.80;86.10;;;;;;5006085;28;20029;-76
2022/10/30 06:38:58;;;;;;;19.02;12.95;;;13.80;86.10;;;;;;5004681;28;20066;-76
2022/10/30 06:41:23;;;;;;;24.17;13.40;;;13.80;86.20;;;;;;5010033;28;20129;-77
2022/10/30 06:43:49;;;;;;;18.38;12.50;;;13.80;86.20;;;;;;4995990;28;20045;-77
2022/10/30 06:46:15;;;;;;;21.30;12.90;;;13.90;86.20;;;;;;5003487;28;20108;-76
2022/10/30 06:48:40;;;;;;;21.40;13.98;;;13.90;86.20;;;;;;4988244;28;20494;-77
2022/10/30 06:51:06;;;;;;;20.50;12.95;;;13.90;86.20;;;;;;4994230;28;20025;-76
2022/10/30 06:53:32;;;;;;;18.63;12.60;;;13.90;86.20;;;;;;5004432;28;20041;-76
2022/10/30 06:56:00;;;;;;;23.02;12.32;;;13.90;86.20;;;;;;4999041;28;20037;-77
2022/10/30 06:58:26;;;;;;;19.52;12.48;;;14.00;86.30;;;;;;4980223;28;20327;-77
2022/10/30 07:00:53;;;;;;;19.20;12.95;;;14.00;86.30;;;;;;4992118;28;20042;-77
2022/10/30 07:03:19;;;;;;;23.40;14.45;;;14.10;86.40;;;;;;4996811;28;20034;-76
2022/10/30 07:05:45;;;;;;;23.13;13.60;;;14.10;86.30;;;;;;4997542;28;20042;-76
2022/10/30 07:08:11;;;;;;;17.77;12.27;;;14.10;86.30;;;;;;4995764;28;20045;-76
2022/10/30 07:10:37;;;;;;;17.50;12.20;;;14.10;86.30;;;;;;4986054;28;20079;-75
2022/10/30 07:13:03;;;;;;;21.52;12.85;;;14.10;86.30;;;;;;4981812;28;20307;-76
2022/10/30 07:15:29;;;;;;;21.20;13.13;;;14.20;86.10;;;;;;4974069;28;20030;-76
2022/10/30 07:18:00;;;;;;;21.92;12.02;;;14.30;85.80;;;;;;4977123;28;20475;-76
2022/10/30 07:20:28;;;;;;;19.67;12.25;;;14.30;85.60;;;;;;4972472;28;20031;-75
2022/10/30 07:22:53;;;;;;;20.98;12.65;;;14.40;85.60;;;;;;4980232;28;20042;-76
2022/10/30 07:25:19;;;;;;;21.15;13.15;;;14.40;85.60;;;;;;4978511;28;20034;-76
2022/10/30 07:27:47;;;;;;;18.08;12.32;;;14.40;85.60;;;;;;4976063;28;20110;-76
2022/10/30 07:30:15;;;;;;;20.65;11.25;;;14.40;85.50;;;;;;4980061;28;20442;-77
2022/10/30 07:32:41;;;;;;;20.35;12.13;;;14.50;85.60;;;;;;4980341;28;20037;-76
2022/10/30 07:35:09;;;;;;;20.50;11.63;;;14.60;85.50;;;;;;4981841;28;20049;-75
2022/10/30 07:37:34;;;;;;;17.98;11.98;;;14.60;85.50;;;;;;4983283;28;20175;-76
2022/10/30 07:40:00;;;;;;;17.90;11.98;;;14.70;85.50;;;;;;4984684;28;20064;-79
2022/10/30 07:42:26;;;;;;;20.08;12.35;;;14.80;85.40;;;;;;4979552;28;20023;-77
2022/10/30 07:44:51;;;;;;;21.10;12.27;;;14.90;85.20;;;;;;4980994;28;20138;-75
2022/10/30 07:47:17;;;;;;;18.63;12.63;;;15.00;85.10;;;;;;4976442;28;20034;-76
2022/10/30 07:49:43;;;;;;;22.15;12.52;;;15.10;84.90;;;;;;4981770;28;20034;-77
2022/10/30 07:52:08;;;;;;;18.50;12.02;;;15.20;84.80;;;;;;4980139;28;20148;-77
2022/10/30 07:54:34;;;;;;;18.90;11.77;;;15.30;84.70;;;;;;4976579;28;20054;-75
2022/10/30 07:56:59;;;;;;;21.10;12.93;;;15.30;84.30;;;;;;4984087;28;20564;-74
2022/10/30 07:59:25;;;;;;;22.75;12.63;;;15.40;84.10;;;;;;4978076;28;20113;-74
2022/10/30 08:01:51;;;;;;;21.13;13.68;;;15.40;84.30;;;;;;4979828;28;20454;-75
2022/10/30 08:04:16;;;;;;;19.75;12.52;;;15.50;84.20;;;;;;4973332;28;20039;-78
2022/10/30 08:06:42;;;;;;;17.77;10.85;;;15.60;84.30;;;;;;4975281;28;20117;-77
2022/10/30 08:09:08;;;;;;;19.67;11.68;;;15.60;84.40;;;;;;4977666;28;20042;-78
2022/10/30 08:11:34;;;;;;;22.75;12.45;;;15.70;84.20;;;;;;4979105;28;20047;-77
2022/10/30 08:14:00;;;;;;;20.27;12.43;;;15.80;84.10;;;;;;4979241;28;20066;-77
2022/10/30 08:16:26;;;;;;;23.25;12.23;;;15.80;84.10;;;;;;4979463;28;20429;-76
2022/10/30 08:18:52;;;;;;;25.92;12.73;;;15.90;84.20;;;;;;4977654;28;20038;-77
2022/10/30 08:21:17;;;;;;;21.95;11.55;;;16.00;84.00;;;;;;4976990;28;20125;-78
2022/10/30 08:23:43;;;;;;;19.70;11.88;;;16.10;83.90;;;;;;4978264;28;20117;-77
2022/10/30 08:26:09;;;;;;;24.00;12.35;;;16.20;83.30;;;;;;4978714;28;20031;-78
2022/10/30 08:28:34;;;;;;;25.33;12.20;;;16.30;82.80;;;;;;4978814;28;20526;-75
2022/10/30 08:31:01;;;;;;;22.23;11.10;;;16.40;82.60;;;;;;4984614;28;20109;-75
2022/10/30 08:33:27;;;;;;;23.63;12.07;;;16.50;82.30;;;;;;4979992;28;20042;-78
2022/10/30 08:35:58;;;;;;;20.67;11.45;;;16.60;82.30;;;;;;4983210;28;20064;-77
2022/10/30 08:38:24;;;;;;;24.33;12.82;;;16.70;82.00;;;;;;4979616;28;20172;-78
2022/10/30 08:40:51;;;;;;;23.23;12.77;;;16.90;81.40;;;;;;4975381;28;20470;-77
2022/10/30 08:43:17;;;;;;;22.30;12.60;;;17.00;81.20;;;;;;4972838;28;20129;-77
2022/10/30 08:45:43;;;;;;;25.70;12.70;;;17.10;80.70;;;;;;4977733;28;20121;-77
2022/10/30 08:48:11;;;;;;;20.50;11.65;;;17.30;80.50;;;;;;4977436;28;20044;-78
2022/10/30 08:50:36;;;;;;;19.60;11.00;;;17.60;79.40;;;;;;4979224;28;20034;-77
2022/10/30 08:53:04;;;;;;;22.67;11.80;;;17.60;78.80;;;;;;4982812;28;20334;-77
2022/10/30 08:55:31;;;;;;;21.65;12.00;;;17.70;78.00;;;;;;4983068;28;20045;-77
2022/10/30 08:57:57;;;;;;;19.10;12.05;;;17.90;78.30;;;;;;4984451;28;20129;-76
2022/10/30 09:00:23;;;;;;;22.00;11.40;;;18.10;77.40;;;;;;4980958;28;20046;-77
2022/10/30 09:02:49;;;;;;;26.30;10.95;;;18.10;77.40;;;;;;4990454;28;20143;-78
2022/10/30 09:05:14;;;;;;;20.00;11.45;;;18.10;77.00;;;;;;4988400;28;20101;-76
2022/10/30 09:07:40;;;;;;;19.80;11.35;;;18.10;76.90;;;;;;4979072;28;20414;-77
2022/10/30 09:10:06;;;;;;;19.95;10.73;;;18.30;76.50;;;;;;4981822;28;20117;-77
2022/10/30 09:12:32;;;;;;;19.63;10.70;;;18.50;76.00;;;;;;4983539;28;20049;-78
2022/10/30 09:14:57;;;;;;;23.58;11.48;;;18.50;75.50;;;;;;4995112;28;20026;-78
2022/10/30 09:17:23;;;;;;;18.77;10.85;;;18.60;75.20;;;;;;5001422;28;20124;-78
2022/10/30 09:19:48;;;;;;;21.55;10.63;;;18.60;76.30;;;;;;4999504;28;20363;-76
2022/10/30 09:22:14;;;;;;;21.45;11.52;;;18.80;75.10;;;;;;4999204;28;20541;-76
2022/10/30 09:24:40;;;;;;;24.75;11.65;;;19.00;75.00;;;;;;5000011;28;20034;-78
2022/10/30 09:27:06;;;;;;;19.98;10.50;;;18.90;74.20;;;;;;4981587;28;20022;-78
2022/10/30 09:29:32;;;;;;;20.73;10.07;;;19.00;74.10;;;;;;4975556;28;20053;-78
2022/10/30 09:31:58;;;;;;;17.33;9.95;;;19.00;74.20;;;;;;4995732;28;20033;-78
2022/10/30 09:34:25;;;;;;;19.77;10.63;;;19.10;74.30;;;;;;4997948;28;20042;-79
2022/10/30 09:36:51;;;;;;;17.95;9.98;;;19.10;74.30;;;;;;4992416;28;20171;-79
2022/10/30 09:39:17;;;;;;;22.30;11.43;;;19.10;74.60;;;;;;4996510;28;20045;-77
2022/10/30 09:42:04;;;;;;;21.27;10.13;;;19.10;73.70;;;;;;4997556;28;20488;-76
2022/10/30 09:44:51;;;;;;;19.13;10.90;;;19.00;73.80;;;;;;4992675;28;20062;-77
2022/10/30 09:47:44;;;;;;;19.92;10.30;;;19.00;73.60;;;;;;4977331;28;20425;-76
2022/10/30 09:50:28;;;;;;;19.95;9.90;;;19.00;74.20;;;;;;4992377;28;20394;-76
2022/10/30 09:52:53;;;;;;;19.15;10.80;;;19.10;73.60;;;;;;4999310;28;20058;-81
2022/10/30 09:55:48;;;;;;;19.95;10.43;;;19.10;73.20;;;;;;4999527;28;20595;-76
2022/10/30 09:58:40;;;;;;;15.85;9.13;;;19.20;73.40;;;;;;4998677;28;20051;-80
2022/10/30 10:01:50;;;;;;;15.73;9.00;;;19.40;73.70;;;;;;4977608;28;20037;-80
2022/10/30 10:04:47;;;;;;;19.27;9.88;;;19.50;73.10;;;;;;4970914;28;20049;-80
2022/10/30 10:07:21;;;;;;;19.13;9.60;;;19.50;72.70;;;;;;4992741;28;20529;-78
2022/10/30 10:09:51;;;;;;;16.52;9.82;;;19.40;72.80;;;;;;4997585;28;20041;-79
2022/10/30 10:12:28;;;;;;;16.45;9.65;;;19.30;73.10;;;;;;4996686;28;20030;-81
2022/10/30 10:14:56;;;;;;;19.08;9.55;;;19.40;73.00;;;;;;4983469;28;20026;-80
2022/10/30 10:17:37;;;;;;;19.45;10.38;;;19.40;73.20;;;;;;4985486;28;20069;-82
2022/10/30 10:20:04;;;;;;;18.17;10.63;;;19.50;72.60;;;;;;5006988;28;20057;-77
2022/10/30 10:22:39;;;;;;;16.40;10.60;;;19.60;72.30;;;;;;5000077;28;20044;-80
2022/10/30 10:25:13;;;;;;;18.08;9.80;;;19.60;71.60;;;;;;4998018;28;20060;-78
2022/10/30 10:28:24;;;;;;;18.92;10.02;;;19.60;72.00;;;;;;4987889;28;20038;-81
2022/10/30 10:31:08;;;;;;;17.65;9.13;;;19.70;72.00;;;;;;4998462;28;20352;-80
2022/10/30 10:33:49;;;;;;;17.67;10.07;;;19.80;72.20;;;;;;5000006;28;20077;-79
2022/10/30 10:36:33;;;;;;;18.30;10.60;;;19.90;71.90;;;;;;4996445;28;20046;-75
2022/10/30 10:39:06;;;;;;;16.23;10.65;;;19.90;71.40;;;;;;4999715;28;20133;-80
2022/10/30 10:41:50;;;;;;;20.45;10.55;;;19.80;71.40;;;;;;5001458;28;20030;-83
2022/10/30 10:44:43;;;;;;;21.13;10.77;;;19.90;71.60;;;;;;5000994;28;20529;-82
2022/10/30 10:47:29;;;;;;;18.52;10.43;;;19.80;72.00;;;;;;4981313;28;20196;-80
2022/10/30 10:50:16;;;;;;;20.73;10.38;;;19.80;72.20;;;;;;4999942;28;20038;-81
2022/10/30 10:52:54;;;;;;;18.60;10.45;;;19.80;72.00;;;;;;5019724;28;20344;-76
2022/10/30 10:55:25;;;;;;;17.30;10.52;;;19.90;71.50;;;;;;5028334;28;20034;-75
2022/10/30 10:57:52;;;;;;;20.73;10.48;;;20.00;71.60;;;;;;5022111;28;20064;-81
2022/10/30 11:00:22;;;;;;;21.33;9.85;;;20.10;71.30;;;;;;5027275;28;20113;-76
2022/10/30 11:03:10;;;;;;;18.45;12.48;;;20.10;71.20;;;;;;5007232;28;20217;-80
2022/10/30 11:05:42;;;;;;;17.83;10.85;;;20.10;71.40;;;;;;4992582;28;20053;-76
2022/10/30 11:08:25;;;;;;;20.80;11.63;;;20.10;71.30;;;;;;5003153;28;20048;-80
2022/10/30 11:11:02;;;;;;;24.55;11.57;;;20.10;71.70;;;;;;5002838;28;20064;-78
2022/10/30 11:13:30;;;;;;;15.73;9.55;;;20.10;71.90;;;;;;5003167;28;20050;-76
2022/10/30 11:15:59;;;;;;;20.45;12.32;;;20.10;72.40;;;;;;5004765;28;20041;-83
2022/10/30 11:18:24;;;;;;;22.38;11.13;;;20.20;72.10;;;;;;5003921;28;20078;-83
2022/10/30 11:21:04;;;;;;;25.20;12.57;;;20.20;71.50;;;;;;5000981;28;20034;-79
2022/10/30 11:23:31;;;;;;;22.25;11.88;;;20.40;71.50;;;;;;4999327;28;20034;-82
2022/10/30 11:25:57;;;;;;;23.48;11.57;;;20.40;71.10;;;;;;4999236;28;20030;-80
2022/10/30 11:28:41;;;;;;;17.20;10.20;;;20.60;71.10;;;;;;4999667;28;20475;-84
2022/10/30 11:31:17;;;;;;;17.60;11.38;;;20.80;70.90;;;;;;4996967;28;20034;-81
2022/10/30 11:33:45;;;;;;;18.27;10.80;;;20.80;70.40;;;;;;4997521;28;20480;-82
2022/10/30 11:36:14;;;;;;;23.73;12.00;;;21.00;70.40;;;;;;5007280;28;20110;-77
2022/10/30 11:38:40;;;;;;;17.83;10.82;;;21.00;69.00;;;;;;5024620;28;20033;-79
2022/10/30 11:41:09;;;;;;;22.70;11.15;;;21.00;69.00;;;;;;5000161;28;20101;-79
2022/10/30 11:43:37;;;;;;;22.30;10.20;;;21.00;68.60;;;;;;5002127;28;20109;-78
2022/10/30 11:46:08;;;;;;;18.92;10.50;;;21.00;68.70;;;;;;4999066;28;20038;-79
2022/10/30 11:48:36;;;;;;;18.52;9.85;;;21.10;68.10;;;;;;5000588;28;20041;-75
2022/10/30 11:51:02;;;;;;;16.10;10.30;;;21.20;68.10;;;;;;5003491;28;20157;-79
2022/10/30 11:53:32;;;;;;;18.20;10.25;;;21.30;67.90;;;;;;5000740;28;20041;-80
2022/10/30 11:55:59;;;;;;;19.33;10.50;;;21.30;67.60;;;;;;4998352;28;20080;-77
2022/10/30 11:58:33;;;;;;;17.70;9.75;;;21.50;67.20;;;;;;4982014;28;20046;-80
2022/10/30 12:01:26;;;;;;;17.80;9.73;;;21.50;66.70;;;;;;4993115;28;20040;-78
2022/10/30 12:03:53;;;;;;;22.20;10.70;;;21.60;66.10;;;;;;4983015;28;20113;-79
2022/10/30 12:06:19;;;;;;;20.35;10.43;;;21.60;65.90;;;;;;4997787;28;20123;-81
2022/10/30 12:09:09;;;;;;;16.88;10.35;;;21.60;66.50;;;;;;5002172;28;20465;-81
2022/10/30 12:11:38;;;;;;;18.05;10.38;;;21.60;66.00;;;;;;5000146;28;20311;-80
2022/10/30 12:14:04;;;;;;;18.33;10.88;;;21.60;66.70;;;;;;5001898;28;20038;-81
2022/10/30 12:16:31;;;;;;;16.60;10.63;;;21.60;66.70;;;;;;4999810;28;20038;-77
2022/10/30 12:19:03;;;;;;;22.30;10.68;;;21.60;66.70;;;;;;5002133;28;20045;-80
2022/10/30 12:21:38;;;;;;;22.52;10.88;;;21.60;66.40;;;;;;4982081;28;20485;-80
2022/10/30 12:24:11;;;;;;;16.05;10.60;;;21.60;66.70;;;;;;4998673;28;20041;-81
2022/10/30 12:26:38;;;;;;;18.15;9.85;;;21.60;66.10;;;;;;5001217;28;20042;-75
2022/10/30 12:29:11;;;;;;;20.40;11.27;;;21.70;65.50;;;;;;4993513;28;20034;-79
2022/10/30 12:31:38;;;;;;;15.48;10.13;;;21.70;66.20;;;;;;4994019;28;20035;-80
2022/10/30 12:34:28;;;;;;;17.70;10.05;;;21.70;66.20;;;;;;4996188;28;20042;-80
2022/10/30 12:37:08;;;;;;;20.42;11.25;;;21.70;67.00;;;;;;5000187;28;20104;-79
2022/10/30 12:39:51;;;;;;;21.25;10.52;;;21.60;67.00;;;;;;4996647;28;20564;-78
2022/10/30 12:42:21;;;;;;;20.40;10.82;;;21.50;67.20;;;;;;4998719;28;20374;-77